Time;durP1;ratioP1;P1;durP2;ratioP2;P2;SDS_P1;SDS_P2;PMS_P1;PMS_P2;Temp;Humidity;BMP_temperature;BMP_pressure;BME280_temperature;BME280_humidity;BME280_pressure;Samples;Min_cycle;Max_cycle;Signal;HPM_P1;HPM_P2
2024/01/17 00:00:52;;;;;;;31.67;11.97;;;;;;;;;;5054511;28;20044;-69
2024/01/17 00:03:18;;;;;;;27.73;10.67;;;;;;;;;;5054589;28;20170;-68
2024/01/17 00:05:43;;;;;;;24.03;11.47;;;;;;;;;;5053140;28;20082;-68
2024/01/17 00:08:09;;;;;;;20.60;10.93;;;;;;;;;;5050551;28;20527;-67
2024/01/17 00:10:35;;;;;;;20.03;10.20;;;;;;;;;;5043532;28;20071;-68
2024/01/17 00:13:02;;;;;;;27.37;11.57;;;;;;;;;;5040811;28;20021;-69
2024/01/17 00:15:27;;;;;;;25.47;12.17;;;;;;;;;;5052028;28;20017;-68
2024/01/17 00:17:53;;;;;;;22.30;10.67;;;;;;;;;;5049928;28;20506;-71
2024/01/17 00:20:19;;;;;;;29.93;10.90;;;;;;;;;;5045878;28;20123;-67
2024/01/17 00:22:45;;;;;;;25.10;10.83;;;;;;;;;;5031588;28;20253;-68
2024/01/17 00:25:11;;;;;;;29.00;11.67;;;;;;;;;;5030071;28;20059;-67
2024/01/17 00:27:38;;;;;;;21.97;11.87;;;;;;;;;;5031017;28;20202;-68
2024/01/17 00:30:04;;;;;;;26.07;10.67;;;;;;;;;;5032876;28;20083;-68
2024/01/17 00:32:34;;;;;;;20.37;10.33;;;;;;;;;;5049729;28;20053;-67
2024/01/17 00:35:00;;;;;;;21.57;10.87;;;;;;;;;;5049368;28;20365;-69
2024/01/17 00:37:25;;;;;;;26.37;12.63;;;;;;;;;;5050720;28;20103;-69
2024/01/17 00:39:51;;;;;;;27.00;11.33;;;;;;;;;;5049571;28;20112;-67
2024/01/17 00:42:17;;;;;;;18.53;10.07;;;;;;;;;;5029796;28;20029;-67
2024/01/17 00:44:42;;;;;;;24.07;11.87;;;;;;;;;;5031205;28;20474;-68
2024/01/17 00:47:08;;;;;;;23.90;11.07;;;;;;;;;;5031417;28;20021;-67
2024/01/17 00:49:37;;;;;;;23.27;10.87;;;;;;;;;;5036793;28;20139;-71
2024/01/17 00:52:03;;;;;;;24.33;10.60;;;;;;;;;;5029262;28;20021;-69
2024/01/17 00:54:28;;;;;;;27.17;10.07;;;;;;;;;;5030931;28;20358;-67
2024/01/17 00:56:54;;;;;;;19.63;10.47;;;;;;;;;;5031127;28;20437;-68
2024/01/17 00:59:19;;;;;;;24.93;11.57;;;;;;;;;;5029777;28;20124;-67
2024/01/17 01:01:45;;;;;;;30.10;11.43;;;;;;;;;;5031026;28;20029;-69
2024/01/17 01:04:11;;;;;;;25.17;11.30;;;;;;;;;;5029603;28;20025;-68
2024/01/17 01:06:36;;;;;;;23.50;11.17;;;;;;;;;;5030064;28;20493;-68
2024/01/17 01:09:02;;;;;;;24.50;11.87;;;;;;;;;;5036035;28;20104;-69
2024/01/17 01:11:32;;;;;;;24.73;11.77;;;;;;;;;;5050941;28;20017;-70
2024/01/17 01:13:58;;;;;;;23.60;12.27;;;;;;;;;;5049555;28;20020;-68
2024/01/17 01:16:23;;;;;;;30.10;11.30;;;;;;;;;;5049296;28;20094;-68
2024/01/17 01:18:49;;;;;;;22.70;10.90;;;;;;;;;;5049420;28;20086;-68
2024/01/17 01:21:15;;;;;;;22.27;10.87;;;;;;;;;;5050699;28;20025;-69
2024/01/17 01:23:40;;;;;;;21.70;11.30;;;;;;;;;;5049443;28;20418;-69
2024/01/17 01:26:06;;;;;;;17.33;9.80;;;;;;;;;;5048684;28;20025;-70
2024/01/17 01:28:32;;;;;;;25.30;11.60;;;;;;;;;;5048005;28;20460;-69
2024/01/17 01:30:57;;;;;;;24.03;11.27;;;;;;;;;;5029463;28;20086;-68
2024/01/17 01:33:24;;;;;;;21.37;10.33;;;;;;;;;;5029917;28;20033;-69
2024/01/17 01:35:49;;;;;;;24.53;9.60;;;;;;;;;;5029462;28;20033;-68
2024/01/17 01:38:15;;;;;;;22.83;10.47;;;;;;;;;;5033126;28;20033;-69
2024/01/17 01:40:41;;;;;;;25.03;12.30;;;;;;;;;;5049497;28;20033;-71
2024/01/17 01:43:20;;;;;;;21.37;10.63;;;;;;;;;;5037453;28;20120;-71
2024/01/17 01:46:06;;;;;;;22.97;11.63;;;;;;;;;;5037489;28;20033;-71
2024/01/17 01:48:32;;;;;;;19.13;9.80;;;;;;;;;;5036244;28;20397;-72
2024/01/17 01:50:58;;;;;;;21.83;10.40;;;;;;;;;;5036324;28;20025;-71
2024/01/17 01:53:25;;;;;;;23.60;10.70;;;;;;;;;;5035962;28;20599;-71
2024/01/17 01:55:53;;;;;;;20.13;9.73;;;;;;;;;;5035020;28;20509;-71
2024/01/17 01:58:20;;;;;;;26.93;11.57;;;;;;;;;;5035276;28;20017;-70
2024/01/17 02:00:46;;;;;;;24.80;10.40;;;;;;;;;;5034868;28;20456;-72
2024/01/17 02:03:13;;;;;;;22.87;10.80;;;;;;;;;;5036197;28;20283;-70
2024/01/17 02:05:39;;;;;;;17.83;10.27;;;;;;;;;;5035869;28;20037;-71
2024/01/17 02:08:06;;;;;;;21.30;10.10;;;;;;;;;;5035312;28;20532;-71
2024/01/17 02:10:32;;;;;;;25.60;11.87;;;;;;;;;;5037216;28;20053;-71
2024/01/17 02:12:59;;;;;;;22.50;9.57;;;;;;;;;;5035549;28;20100;-71
2024/01/17 02:15:24;;;;;;;22.50;10.03;;;;;;;;;;5035395;28;20041;-71
2024/01/17 02:17:50;;;;;;;20.87;12.07;;;;;;;;;;5036084;28;20057;-71
2024/01/17 02:20:17;;;;;;;27.53;10.70;;;;;;;;;;5037107;28;20033;-71
2024/01/17 02:22:43;;;;;;;23.10;10.90;;;;;;;;;;5035514;28;20032;-70
2024/01/17 02:25:08;;;;;;;24.67;10.93;;;;;;;;;;5036190;28;20029;-73
2024/01/17 02:27:34;;;;;;;27.67;12.03;;;;;;;;;;5036772;28;20041;-72
2024/01/17 02:29:59;;;;;;;22.87;11.10;;;;;;;;;;5034905;28;20045;-69
2024/01/17 02:32:26;;;;;;;25.40;11.13;;;;;;;;;;5034900;28;20029;-70
2024/01/17 02:34:52;;;;;;;26.30;10.30;;;;;;;;;;5034471;28;20049;-73
2024/01/17 02:37:18;;;;;;;25.07;11.43;;;;;;;;;;5034651;28;20025;-69
2024/01/17 02:39:43;;;;;;;23.33;11.27;;;;;;;;;;5036493;28;20037;-71
2024/01/17 02:42:09;;;;;;;29.03;11.63;;;;;;;;;;5048250;28;20056;-71
2024/01/17 02:44:34;;;;;;;20.63;11.07;;;;;;;;;;5055891;28;20029;-73
2024/01/17 02:47:00;;;;;;;27.00;12.37;;;;;;;;;;5054218;28;20024;-71
2024/01/17 02:49:25;;;;;;;27.97;12.23;;;;;;;;;;5053602;28;20045;-72
2024/01/17 02:51:51;;;;;;;33.13;11.20;;;;;;;;;;5055964;28;20449;-69
2024/01/17 02:54:17;;;;;;;23.87;10.33;;;;;;;;;;5036443;28;20034;-70
2024/01/17 02:56:43;;;;;;;21.40;11.43;;;;;;;;;;5035846;28;20049;-72
2024/01/17 02:59:08;;;;;;;22.30;9.90;;;;;;;;;;5038899;28;20138;-71
2024/01/17 03:01:34;;;;;;;25.97;10.47;;;;;;;;;;5056364;28;20033;-71
2024/01/17 03:04:00;;;;;;;22.10;9.80;;;;;;;;;;5057237;28;20031;-70
2024/01/17 03:06:26;;;;;;;23.70;10.80;;;;;;;;;;5057585;28;20036;-72
2024/01/17 03:08:51;;;;;;;21.83;10.10;;;;;;;;;;5055685;28;20025;-71
2024/01/17 03:11:17;;;;;;;24.43;11.10;;;;;;;;;;5036291;28;20033;-71
2024/01/17 03:13:42;;;;;;;30.87;11.07;;;;;;;;;;5035792;28;20048;-70
2024/01/17 03:16:08;;;;;;;22.53;10.87;;;;;;;;;;5018897;28;20067;-70
2024/01/17 03:18:36;;;;;;;20.17;10.53;;;;;;;;;;5034990;28;20033;-71
2024/01/17 03:21:05;;;;;;;26.13;12.37;;;;;;;;;;5033779;28;20045;-73
2024/01/17 03:23:31;;;;;;;26.23;12.03;;;;;;;;;;5037168;28;20072;-74
2024/01/17 03:25:56;;;;;;;31.40;10.70;;;;;;;;;;5035744;28;20025;-71
2024/01/17 03:28:22;;;;;;;21.43;12.20;;;;;;;;;;5037956;28;20029;-71
2024/01/17 03:30:48;;;;;;;22.20;10.53;;;;;;;;;;5052399;28;20032;-71
2024/01/17 03:33:14;;;;;;;26.00;10.27;;;;;;;;;;5056118;28;20032;-72
2024/01/17 03:35:39;;;;;;;29.00;10.27;;;;;;;;;;5054556;28;20021;-71
2024/01/17 03:38:05;;;;;;;22.83;10.97;;;;;;;;;;5055741;28;20028;-70
2024/01/17 03:40:31;;;;;;;22.90;10.37;;;;;;;;;;5042091;28;20061;-71
2024/01/17 03:42:56;;;;;;;20.80;10.23;;;;;;;;;;5035213;28;20017;-69
2024/01/17 03:45:22;;;;;;;23.23;10.40;;;;;;;;;;5036209;28;20511;-71
2024/01/17 03:47:47;;;;;;;25.63;10.97;;;;;;;;;;5035665;28;20448;-70
2024/01/17 03:50:13;;;;;;;31.00;11.47;;;;;;;;;;5046325;28;20029;-71
2024/01/17 03:52:39;;;;;;;25.20;10.57;;;;;;;;;;5055957;28;20036;-72
2024/01/17 03:55:05;;;;;;;28.87;11.60;;;;;;;;;;5054892;28;20452;-71
2024/01/17 03:57:31;;;;;;;18.83;9.53;;;;;;;;;;5056925;28;20076;-71
2024/01/17 03:59:57;;;;;;;24.07;11.13;;;;;;;;;;5047952;28;20021;-71
2024/01/17 04:02:22;;;;;;;20.87;10.63;;;;;;;;;;5037349;28;20143;-71
2024/01/17 04:04:48;;;;;;;30.03;11.40;;;;;;;;;;5042449;28;20428;-72
2024/01/17 04:07:14;;;;;;;19.77;9.73;;;;;;;;;;5042253;28;20044;-71
2024/01/17 04:09:41;;;;;;;25.97;11.07;;;;;;;;;;5041086;28;20029;-70
2024/01/17 04:12:06;;;;;;;21.43;10.03;;;;;;;;;;5054823;28;20021;-72
2024/01/17 04:14:33;;;;;;;20.63;10.03;;;;;;;;;;5054638;28;20440;-71
2024/01/17 04:16:59;;;;;;;20.10;9.47;;;;;;;;;;5054521;28;20029;-69
2024/01/17 04:19:25;;;;;;;25.40;11.70;;;;;;;;;;5055867;28;20040;-71
2024/01/17 04:21:56;;;;;;;22.13;11.23;;;;;;;;;;5055310;28;20033;-70
2024/01/17 04:24:23;;;;;;;17.23;9.40;;;;;;;;;;5054455;28;20017;-71
2024/01/17 04:26:48;;;;;;;20.50;10.60;;;;;;;;;;5054216;28;20040;-71
2024/01/17 04:29:14;;;;;;;21.77;10.53;;;;;;;;;;5052297;28;20025;-71
2024/01/17 04:31:39;;;;;;;24.33;8.83;;;;;;;;;;5035545;28;20025;-70
2024/01/17 04:34:05;;;;;;;24.40;10.60;;;;;;;;;;5034728;28;20025;-69
2024/01/17 04:36:31;;;;;;;20.57;11.47;;;;;;;;;;5035223;28;20033;-72
2024/01/17 04:38:57;;;;;;;29.23;10.87;;;;;;;;;;5034458;28;20416;-71
2024/01/17 04:41:26;;;;;;;28.23;11.30;;;;;;;;;;5044967;28;20029;-71
2024/01/17 04:43:52;;;;;;;21.70;10.67;;;;;;;;;;5052717;28;20033;-70
2024/01/17 04:46:17;;;;;;;28.37;12.07;;;;;;;;;;5051694;28;20174;-70
2024/01/17 04:48:44;;;;;;;19.73;10.43;;;;;;;;;;5053050;28;20060;-72
2024/01/17 04:51:10;;;;;;;24.43;11.53;;;;;;;;;;5053352;28;20032;-70
2024/01/17 04:53:43;;;;;;;28.20;10.23;;;;;;;;;;5051182;28;20462;-70
2024/01/17 04:56:10;;;;;;;23.47;10.60;;;;;;;;;;5051390;28;20052;-71
2024/01/17 04:58:36;;;;;;;24.77;10.13;;;;;;;;;;5053922;28;20025;-73
2024/01/17 05:01:03;;;;;;;22.73;10.10;;;;;;;;;;5052585;28;20044;-72
2024/01/17 05:03:28;;;;;;;21.90;9.80;;;;;;;;;;5055488;28;20104;-72
2024/01/17 05:05:54;;;;;;;28.93;11.50;;;;;;;;;;5054182;28;20067;-72
2024/01/17 05:08:20;;;;;;;22.33;11.23;;;;;;;;;;5053332;28;20025;-72
2024/01/17 05:10:45;;;;;;;26.13;11.40;;;;;;;;;;5056837;28;20028;-71
2024/01/17 05:13:12;;;;;;;30.23;11.83;;;;;;;;;;5058094;28;20025;-72
2024/01/17 05:15:38;;;;;;;24.77;11.67;;;;;;;;;;5058370;28;20059;-70
2024/01/17 05:18:04;;;;;;;34.33;13.10;;;;;;;;;;5058509;28;20127;-69
2024/01/17 05:20:30;;;;;;;17.70;10.87;;;;;;;;;;5057558;28;20025;-72
2024/01/17 05:22:56;;;;;;;26.63;13.23;;;;;;;;;;5046138;28;20040;-73
2024/01/17 05:25:21;;;;;;;23.57;10.40;;;;;;;;;;5041674;28;20029;-71
2024/01/17 05:27:54;;;;;;;25.90;11.10;;;;;;;;;;5037209;28;20064;-71
2024/01/17 05:30:24;;;;;;;24.90;10.97;;;;;;;;;;5037319;28;20041;-71
2024/01/17 05:32:50;;;;;;;30.67;13.17;;;;;;;;;;5036845;28;20033;-71
2024/01/17 05:35:16;;;;;;;22.20;10.03;;;;;;;;;;5038346;28;20025;-71
2024/01/17 05:37:42;;;;;;;23.10;9.50;;;;;;;;;;5036782;28;20025;-72
2024/01/17 05:40:10;;;;;;;22.47;10.33;;;;;;;;;;5037766;28;20025;-72
2024/01/17 05:42:37;;;;;;;23.30;10.80;;;;;;;;;;5036368;28;20029;-72
2024/01/17 05:45:03;;;;;;;22.03;11.33;;;;;;;;;;5036695;28;20040;-69
2024/01/17 05:47:30;;;;;;;27.30;10.80;;;;;;;;;;5037888;28;20324;-71
2024/01/17 05:49:56;;;;;;;21.97;8.57;;;;;;;;;;5037678;28;20461;-72
2024/01/17 05:52:23;;;;;;;17.37;10.37;;;;;;;;;;5037256;28;20026;-72
2024/01/17 05:54:48;;;;;;;27.80;10.80;;;;;;;;;;5037265;28;20021;-71
2024/01/17 05:57:14;;;;;;;21.23;10.70;;;;;;;;;;5037381;28;20473;-70
2024/01/17 05:59:40;;;;;;;20.43;10.00;;;;;;;;;;5036870;28;20041;-72
2024/01/17 06:02:06;;;;;;;16.57;10.57;;;;;;;;;;5036433;28;20134;-71
2024/01/17 06:04:33;;;;;;;32.33;12.00;;;;;;;;;;5035233;28;20037;-73
2024/01/17 06:07:01;;;;;;;20.03;10.77;;;;;;;;;;5037404;28;20037;-73
2024/01/17 06:09:27;;;;;;;21.73;10.57;;;;;;;;;;5038089;28;20026;-72
2024/01/17 06:11:53;;;;;;;22.90;10.60;;;;;;;;;;5038491;28;20037;-71
2024/01/17 06:14:18;;;;;;;26.93;11.27;;;;;;;;;;5035267;28;20060;-71
2024/01/17 06:16:44;;;;;;;27.37;9.20;;;;;;;;;;5034592;28;20029;-73
2024/01/17 06:19:10;;;;;;;24.90;11.40;;;;;;;;;;5035110;28;20480;-72
2024/01/17 06:21:36;;;;;;;25.77;9.67;;;;;;;;;;5053341;28;20067;-72
2024/01/17 06:24:01;;;;;;;20.97;10.23;;;;;;;;;;5038023;28;20037;-71
2024/01/17 06:26:27;;;;;;;24.77;9.27;;;;;;;;;;5031769;28;20125;-70
2024/01/17 06:28:52;;;;;;;24.93;11.90;;;;;;;;;;5031888;28;20026;-71
2024/01/17 06:31:25;;;;;;;24.07;10.90;;;;;;;;;;5037909;28;20037;-70
2024/01/17 06:33:51;;;;;;;26.30;10.68;;;;;;;;;;5045047;28;20027;-71
2024/01/17 06:36:17;;;;;;;30.90;11.97;;;;;;;;;;5054673;28;20055;-69
2024/01/17 06:38:43;;;;;;;18.47;9.73;;;;;;;;;;5034098;28;20027;-69
2024/01/17 06:41:09;;;;;;;18.43;10.43;;;;;;;;;;5037359;28;20022;-70
2024/01/17 06:43:34;;;;;;;19.13;9.67;;;;;;;;;;5038242;28;20032;-72
2024/01/17 06:46:00;;;;;;;22.43;11.67;;;;;;;;;;5040899;28;20036;-72
2024/01/17 06:48:25;;;;;;;24.53;11.50;;;;;;;;;;5023983;28;20040;-71
2024/01/17 06:50:51;;;;;;;25.27;11.03;;;;;;;;;;5035057;28;20037;-73
2024/01/17 06:53:17;;;;;;;29.47;11.90;;;;;;;;;;5034359;28;20022;-72
2024/01/17 06:55:44;;;;;;;22.13;10.37;;;;;;;;;;5048572;28;20025;-73
2024/01/17 06:58:10;;;;;;;27.53;11.73;;;;;;;;;;5044569;28;20025;-71
2024/01/17 07:00:36;;;;;;;21.60;10.77;;;;;;;;;;5055598;28;20083;-70
2024/01/17 07:03:02;;;;;;;28.43;10.27;;;;;;;;;;5052379;28;20075;-71
2024/01/17 07:05:28;;;;;;;23.97;11.33;;;;;;;;;;5035297;28;20021;-71
2024/01/17 07:07:54;;;;;;;21.37;11.00;;;;;;;;;;5042357;28;20029;-72
2024/01/17 07:10:20;;;;;;;30.50;11.80;;;;;;;;;;5051941;28;20036;-72
2024/01/17 07:12:46;;;;;;;22.07;10.77;;;;;;;;;;5046589;28;20100;-72
2024/01/17 07:15:12;;;;;;;28.97;14.13;;;;;;;;;;5034196;28;20068;-69
2024/01/17 07:17:38;;;;;;;24.70;13.03;;;;;;;;;;5040468;28;20029;-71
2024/01/17 07:20:05;;;;;;;20.87;10.53;;;;;;;;;;5036066;28;20167;-70
2024/01/17 07:22:30;;;;;;;33.83;14.07;;;;;;;;;;5052653;28;20492;-70
2024/01/17 07:24:56;;;;;;;19.97;10.40;;;;;;;;;;5044391;28;20036;-72
2024/01/17 07:27:21;;;;;;;23.20;11.33;;;;;;;;;;5042778;28;20028;-71
2024/01/17 07:29:47;;;;;;;22.73;10.37;;;;;;;;;;5052855;28;20024;-71
2024/01/17 07:32:13;;;;;;;31.63;10.70;;;;;;;;;;5045351;28;20044;-72
2024/01/17 07:34:39;;;;;;;28.33;11.03;;;;;;;;;;5036755;28;20048;-71
2024/01/17 07:37:05;;;;;;;27.83;11.77;;;;;;;;;;5031860;28;20045;-71
2024/01/17 07:39:31;;;;;;;21.57;11.47;;;;;;;;;;5025821;28;20620;-71
2024/01/17 07:41:57;;;;;;;23.53;10.60;;;;;;;;;;5031726;28;20025;-70
2024/01/17 07:44:29;;;;;;;27.80;11.43;;;;;;;;;;5039035;28;20105;-70
2024/01/17 07:46:54;;;;;;;29.70;10.73;;;;;;;;;;5030241;28;20292;-71
2024/01/17 07:49:20;;;;;;;32.80;11.90;;;;;;;;;;5030059;28;20747;-69
2024/01/17 07:51:45;;;;;;;25.73;11.17;;;;;;;;;;5033353;28;20036;-70
2024/01/17 07:54:13;;;;;;;23.10;10.60;;;;;;;;;;5029418;28;20108;-70
2024/01/17 07:56:39;;;;;;;25.90;10.40;;;;;;;;;;5030917;28;20048;-72
2024/01/17 07:59:07;;;;;;;22.93;9.97;;;;;;;;;;5022139;28;20044;-71
2024/01/17 08:01:33;;;;;;;28.00;10.60;;;;;;;;;;5021398;28;20029;-71
2024/01/17 08:03:58;;;;;;;28.33;11.17;;;;;;;;;;5023092;28;20036;-72
2024/01/17 08:06:26;;;;;;;20.63;10.00;;;;;;;;;;5039109;28;20465;-71
2024/01/17 08:08:54;;;;;;;31.63;11.07;;;;;;;;;;5031261;28;20033;-72
2024/01/17 08:11:20;;;;;;;30.00;10.67;;;;;;;;;;5029402;28;20040;-71
2024/01/17 08:13:46;;;;;;;30.17;11.73;;;;;;;;;;5025115;28;20029;-71
2024/01/17 08:16:13;;;;;;;21.13;10.17;;;;;;;;;;5016961;28;20150;-71
2024/01/17 08:18:39;;;;;;;22.83;9.90;;;;;;;;;;5028320;28;20036;-70
2024/01/17 08:21:06;;;;;;;17.57;9.83;;;;;;;;;;5028079;28;20037;-72
2024/01/17 08:23:34;;;;;;;21.43;10.67;;;;;;;;;;5017620;28;20366;-72
2024/01/17 08:26:00;;;;;;;25.90;11.53;;;;;;;;;;5032835;28;20069;-71
2024/01/17 08:28:26;;;;;;;22.27;9.50;;;;;;;;;;5027764;28;20076;-70
2024/01/17 08:30:52;;;;;;;22.40;11.30;;;;;;;;;;5031517;28;20725;-72
2024/01/17 08:33:18;;;;;;;22.90;10.77;;;;;;;;;;5025885;28;20056;-71
2024/01/17 08:35:44;;;;;;;24.67;9.63;;;;;;;;;;5034642;28;20037;-71
2024/01/17 08:38:11;;;;;;;21.73;9.63;;;;;;;;;;5028718;28;20061;-70
2024/01/17 08:40:40;;;;;;;18.50;9.20;;;;;;;;;;5032317;28;20373;-72
2024/01/17 08:43:08;;;;;;;20.70;8.17;;;;;;;;;;5023799;28;20133;-70
2024/01/17 08:45:38;;;;;;;23.87;8.60;;;;;;;;;;5032215;28;20033;-70
2024/01/17 08:48:05;;;;;;;24.27;9.13;;;;;;;;;;5024174;28;20042;-70
2024/01/17 08:50:34;;;;;;;18.07;8.83;;;;;;;;;;5019227;28;20064;-72
2024/01/17 08:53:06;;;;;;;21.80;9.97;;;;;;;;;;5024384;28;20385;-73
2024/01/17 08:55:32;;;;;;;28.88;10.70;;;;;;;;;;5008099;28;20033;-72
2024/01/17 08:57:59;;;;;;;16.43;8.13;;;;;;;;;;5035850;28;20108;-72
2024/01/17 09:00:27;;;;;;;15.53;8.17;;;;;;;;;;5028180;28;20038;-70
2024/01/17 09:02:57;;;;;;;22.63;8.70;;;;;;;;;;5035293;28;20029;-72
2024/01/17 09:05:24;;;;;;;23.70;8.93;;;;;;;;;;5032251;28;20045;-72
2024/01/17 09:07:58;;;;;;;21.60;9.00;;;;;;;;;;5032209;28;20033;-69
2024/01/17 09:10:28;;;;;;;24.70;8.37;;;;;;;;;;5034814;28;20036;-71
2024/01/17 09:12:55;;;;;;;26.43;9.90;;;;;;;;;;5036425;28;20029;-73
2024/01/17 09:15:21;;;;;;;27.77;10.67;;;;;;;;;;5034241;28;20022;-73
2024/01/17 09:17:50;;;;;;;24.67;9.37;;;;;;;;;;5020286;28;20033;-73
2024/01/17 09:20:20;;;;;;;23.63;9.80;;;;;;;;;;5039342;28;20366;-72
2024/01/17 09:22:48;;;;;;;21.90;10.87;;;;;;;;;;5031705;28;20124;-72
2024/01/17 09:25:21;;;;;;;23.53;9.10;;;;;;;;;;5031790;28;20029;-71
2024/01/17 09:27:48;;;;;;;16.53;8.40;;;;;;;;;;5036263;28;20052;-70
2024/01/17 09:30:22;;;;;;;30.93;11.37;;;;;;;;;;5032533;28;20061;-73
2024/01/17 09:32:51;;;;;;;21.70;7.90;;;;;;;;;;5020016;28;20055;-70
2024/01/17 09:35:23;;;;;;;35.03;8.47;;;;;;;;;;5037414;28;20115;-74
2024/01/17 09:37:53;;;;;;;19.33;8.93;;;;;;;;;;5028289;28;20028;-72
2024/01/17 09:40:23;;;;;;;28.87;9.57;;;;;;;;;;5026979;28;20356;-73
2024/01/17 09:42:53;;;;;;;19.37;8.97;;;;;;;;;;5030294;28;20021;-70
2024/01/17 09:45:29;;;;;;;24.70;8.13;;;;;;;;;;5027969;28;20042;-72
2024/01/17 09:47:57;;;;;;;15.63;7.70;;;;;;;;;;5024983;28;20036;-72
2024/01/17 09:50:23;;;;;;;31.53;8.80;;;;;;;;;;5015728;28;20423;-71
2024/01/17 09:52:53;;;;;;;22.57;6.17;;;;;;;;;;5021645;28;20104;-71
2024/01/17 09:55:25;;;;;;;15.17;7.07;;;;;;;;;;5015349;28;20131;-73
2024/01/17 09:57:56;;;;;;;15.50;6.65;;;;;;;;;;5032657;28;20140;-73
2024/01/17 10:00:25;;;;;;;28.13;9.17;;;;;;;;;;5032597;28;20484;-72
2024/01/17 10:02:54;;;;;;;18.10;7.60;;;;;;;;;;5035120;28;20030;-73
2024/01/17 10:05:25;;;;;;;21.63;8.03;;;;;;;;;;5034678;28;20433;-72
2024/01/17 10:07:55;;;;;;;21.97;8.23;;;;;;;;;;5028231;28;20056;-70
2024/01/17 10:10:22;;;;;;;15.10;7.60;;;;;;;;;;5040738;28;20072;-69
2024/01/17 10:12:51;;;;;;;21.03;8.60;;;;;;;;;;5029464;28;20025;-73
2024/01/17 10:15:21;;;;;;;17.83;7.97;;;;;;;;;;5034140;28;20040;-69
2024/01/17 10:17:50;;;;;;;18.53;7.40;;;;;;;;;;5044897;28;20038;-72
2024/01/17 10:20:17;;;;;;;36.93;8.80;;;;;;;;;;5030722;28;20454;-73
2024/01/17 10:22:46;;;;;;;20.23;7.50;;;;;;;;;;5029179;28;20060;-73
2024/01/17 10:25:12;;;;;;;40.17;8.57;;;;;;;;;;5035052;28;20043;-73
2024/01/17 10:27:38;;;;;;;27.10;7.83;;;;;;;;;;5026108;28;20025;-68
2024/01/17 10:30:05;;;;;;;21.77;9.03;;;;;;;;;;5028463;28;20036;-69
2024/01/17 10:32:32;;;;;;;24.50;7.30;;;;;;;;;;5027497;28;20429;-70
2024/01/17 10:35:04;;;;;;;16.57;7.73;;;;;;;;;;5044637;28;20037;-72
2024/01/17 10:37:35;;;;;;;21.17;8.47;;;;;;;;;;5030772;28;20833;-72
2024/01/17 10:40:29;;;;;;;13.50;7.10;;;;;;;;;;5040185;28;20029;-69
2024/01/17 10:43:13;;;;;;;27.17;9.40;;;;;;;;;;5038005;28;20125;-72
2024/01/17 10:45:43;;;;;;;18.67;7.90;;;;;;;;;;5047482;28;20024;-71
2024/01/17 10:48:10;;;;;;;19.20;7.87;;;;;;;;;;5016613;28;20033;-72
2024/01/17 10:50:37;;;;;;;37.70;9.77;;;;;;;;;;5034404;28;20478;-70
2024/01/17 10:53:05;;;;;;;21.43;8.77;;;;;;;;;;5039165;28;20430;-71
2024/01/17 10:55:38;;;;;;;18.30;7.60;;;;;;;;;;5038178;28;20481;-71
2024/01/17 10:58:11;;;;;;;27.83;9.20;;;;;;;;;;5014484;28;20153;-72
2024/01/17 11:00:47;;;;;;;24.13;8.57;;;;;;;;;;5027235;28;20026;-73
2024/01/17 11:03:23;;;;;;;16.13;6.67;;;;;;;;;;5028868;28;20508;-72
2024/01/17 11:05:51;;;;;;;25.40;9.30;;;;;;;;;;5033389;28;20030;-71
2024/01/17 11:08:21;;;;;;;20.67;8.50;;;;;;;;;;5028301;28;20099;-72
2024/01/17 11:10:50;;;;;;;23.17;8.00;;;;;;;;;;5041717;28;20286;-71
2024/01/17 11:13:20;;;;;;;18.67;9.53;;;;;;;;;;5038840;28;20021;-71
2024/01/17 11:15:51;;;;;;;16.70;8.63;;;;;;;;;;5039710;28;20060;-72
2024/01/17 11:18:25;;;;;;;17.45;8.40;;;;;;;;;;5031974;28;20436;-72
2024/01/17 11:20:58;;;;;;;16.07;9.07;;;;;;;;;;5031824;28;20026;-72
2024/01/17 11:23:51;;;;;;;38.00;12.55;;;;;;;;;;5021794;28;20044;-70
2024/01/17 11:27:02;;;;;;;23.08;8.77;;;;;;;;;;4987753;28;20092;-71
2024/01/17 11:29:55;;;;;;;23.30;9.57;;;;;;;;;;5009543;28;20033;-72
2024/01/17 11:32:54;;;;;;;23.83;9.70;;;;;;;;;;5041455;28;20397;-73
2024/01/17 11:35:56;;;;;;;24.30;12.27;;;;;;;;;;5030932;28;20632;-71
2024/01/17 11:38:33;;;;;;;19.03;9.30;;;;;;;;;;4986875;28;20681;-70
2024/01/17 11:41:08;;;;;;;20.75;9.25;;;;;;;;;;5028571;28;20038;-71
2024/01/17 11:43:41;;;;;;;31.13;9.77;;;;;;;;;;5020113;28;20079;-72
2024/01/17 11:46:10;;;;;;;64.17;30.87;;;;;;;;;;5036007;28;20064;-71
2024/01/17 11:48:47;;;;;;;30.33;11.17;;;;;;;;;;5035021;28;20048;-71
2024/01/17 11:51:24;;;;;;;22.87;10.17;;;;;;;;;;5023294;28;20512;-72
2024/01/17 11:53:53;;;;;;;29.37;11.13;;;;;;;;;;5031301;28;20068;-71
2024/01/17 11:56:21;;;;;;;33.13;12.83;;;;;;;;;;5031103;28;20129;-70
2024/01/17 11:58:53;;;;;;;26.50;11.57;;;;;;;;;;5029240;28;20068;-71
2024/01/17 12:01:22;;;;;;;26.73;10.77;;;;;;;;;;5034078;28;20134;-70
2024/01/17 12:03:49;;;;;;;38.80;12.63;;;;;;;;;;5032513;28;20033;-73
2024/01/17 12:06:22;;;;;;;34.50;11.10;;;;;;;;;;5049673;28;20047;-70
2024/01/17 12:09:07;;;;;;;;;;;;;;;;;;;;;
2024/01/17 12:11:40;;;;;;;33.60;11.00;;;;;;;;;;5032315;28;20041;-70
2024/01/17 12:14:10;;;;;;;32.50;12.30;;;;;;;;;;5045136;28;20029;-71
2024/01/17 12:16:37;;;;;;;41.93;12.67;;;;;;;;;;5035404;28;20035;-71
2024/01/17 12:19:04;;;;;;;40.77;13.10;;;;;;;;;;5029726;28;20041;-72
2024/01/17 12:21:35;;;;;;;56.67;15.40;;;;;;;;;;5028943;28;21595;-74
2024/01/17 12:24:02;;;;;;;31.37;13.13;;;;;;;;;;5030417;28;20041;-70
2024/01/17 12:26:38;;;;;;;35.70;13.43;;;;;;;;;;5036357;28;20046;-71
2024/01/17 12:29:14;;;;;;;48.90;13.50;;;;;;;;;;5024035;28;20044;-71
2024/01/17 12:31:40;;;;;;;38.90;20.10;;;;;;;;;;5027546;28;20118;-70
2024/01/17 12:34:12;;;;;;;29.80;12.53;;;;;;;;;;5035435;28;20028;-72
2024/01/17 12:36:39;;;;;;;24.20;13.00;;;;;;;;;;5020653;28;20068;-75
2024/01/17 12:39:05;;;;;;;24.27;12.00;;;;;;;;;;5026092;28;20088;-73
2024/01/17 12:41:36;;;;;;;29.23;11.43;;;;;;;;;;5041844;28;20029;-72
2024/01/17 12:44:08;;;;;;;26.13;12.17;;;;;;;;;;5022295;28;20029;-72
2024/01/17 12:46:39;;;;;;;24.42;11.82;;;;;;;;;;5018024;28;20033;-73
2024/01/17 12:49:16;;;;;;;22.93;10.33;;;;;;;;;;5038870;28;20362;-71
2024/01/17 12:51:45;;;;;;;25.27;10.80;;;;;;;;;;5040507;28;20478;-72
2024/01/17 12:54:14;;;;;;;22.13;11.10;;;;;;;;;;4994199;28;20063;-71
2024/01/17 12:56:42;;;;;;;22.67;9.67;;;;;;;;;;5027421;28;20544;-68
2024/01/17 12:59:09;;;;;;;26.70;12.03;;;;;;;;;;5023462;28;20064;-71
2024/01/17 13:01:42;;;;;;;20.03;10.80;;;;;;;;;;5033501;28;20098;-73
2024/01/17 13:04:13;;;;;;;26.03;11.53;;;;;;;;;;5019214;28;20065;-72
2024/01/17 13:06:57;;;;;;;28.67;11.03;;;;;;;;;;5028311;28;20033;-71
2024/01/17 13:09:29;;;;;;;21.93;10.73;;;;;;;;;;5039070;28;20029;-71
2024/01/17 13:11:56;;;;;;;24.20;12.03;;;;;;;;;;5019603;28;20659;-73
2024/01/17 13:14:29;;;;;;;22.63;10.60;;;;;;;;;;5012079;28;20116;-72
2024/01/17 13:17:00;;;;;;;25.17;12.50;;;;;;;;;;5022938;28;20033;-70
2024/01/17 13:19:32;;;;;;;26.03;12.17;;;;;;;;;;5002541;28;20033;-70
2024/01/17 13:22:00;;;;;;;22.23;10.73;;;;;;;;;;5024293;28;20037;-71
2024/01/17 13:24:32;;;;;;;24.10;11.50;;;;;;;;;;5026653;28;20059;-72
2024/01/17 13:27:07;;;;;;;21.60;11.52;;;;;;;;;;5027514;28;20441;-72
2024/01/17 13:29:33;;;;;;;21.37;11.70;;;;;;;;;;5017703;28;20294;-73
2024/01/17 13:32:02;;;;;;;25.73;11.53;;;;;;;;;;5029363;28;20029;-70
2024/01/17 13:34:30;;;;;;;24.33;11.47;;;;;;;;;;5015297;28;20037;-71
2024/01/17 13:37:00;;;;;;;21.03;10.83;;;;;;;;;;5030439;28;20053;-73
2024/01/17 13:39:28;;;;;;;23.17;11.00;;;;;;;;;;5024808;28;20409;-72
2024/01/17 13:42:00;;;;;;;22.80;11.57;;;;;;;;;;5023055;28;20038;-71
2024/01/17 13:44:30;;;;;;;23.43;11.77;;;;;;;;;;5010808;28;20033;-69
2024/01/17 13:46:57;;;;;;;25.07;13.40;;;;;;;;;;5035349;28;20037;-71
2024/01/17 13:49:36;;;;;;;21.63;11.13;;;;;;;;;;5031827;28;20330;-72
2024/01/17 13:52:07;;;;;;;21.47;10.47;;;;;;;;;;5022599;28;20029;-73
2024/01/17 13:54:36;;;;;;;20.23;10.53;;;;;;;;;;5023510;28;20025;-71
2024/01/17 13:57:03;;;;;;;22.93;11.63;;;;;;;;;;5025491;28;20041;-71
2024/01/17 13:59:31;;;;;;;27.93;10.00;;;;;;;;;;5016044;28;20063;-71
2024/01/17 14:02:04;;;;;;;23.60;11.30;;;;;;;;;;5019589;28;20061;-71
2024/01/17 14:04:38;;;;;;;24.67;10.80;;;;;;;;;;5013022;28;20025;-71
2024/01/17 14:07:08;;;;;;;24.03;10.17;;;;;;;;;;5025368;28;21096;-70
2024/01/17 14:09:53;;;;;;;21.40;10.47;;;;;;;;;;5028468;28;20044;-71
2024/01/17 14:12:24;;;;;;;20.80;10.57;;;;;;;;;;5048524;28;20099;-69
2024/01/17 14:14:53;;;;;;;30.13;11.87;;;;;;;;;;5004097;28;20021;-71
2024/01/17 14:17:20;;;;;;;26.87;11.63;;;;;;;;;;5027006;28;20029;-71
2024/01/17 14:19:47;;;;;;;20.50;10.90;;;;;;;;;;5033326;28;20037;-70
2024/01/17 14:22:14;;;;;;;23.77;11.00;;;;;;;;;;5034173;28;20045;-72
2024/01/17 14:24:49;;;;;;;29.70;13.73;;;;;;;;;;5040539;28;20508;-72
2024/01/17 14:27:21;;;;;;;27.70;11.50;;;;;;;;;;5036793;28;20025;-72